createdAt,value
2022-12-25T00:01:18.238Z,41.50
2022-12-25T00:03:45.521Z,41.50
2022-12-25T00:06:12.821Z,41.50
2022-12-25T00:08:40.752Z,41.50
2022-12-25T00:11:12.135Z,41.50
2022-12-25T00:13:39.336Z,41.50
2022-12-25T00:16:09.496Z,41.40
2022-12-25T00:18:36.612Z,41.40
2022-12-25T00:21:06.049Z,41.40
2022-12-25T00:23:34.075Z,41.40
2022-12-25T00:26:05.794Z,41.40
2022-12-25T00:28:33.001Z,41.40
2022-12-25T00:31:00.153Z,41.40
2022-12-25T00:33:27.415Z,41.40
2022-12-25T00:36:01.874Z,41.40
2022-12-25T00:38:28.939Z,41.40
2022-12-25T00:40:56.860Z,41.30
2022-12-25T00:43:24.777Z,41.30
2022-12-25T00:45:59.802Z,41.30
2022-12-25T00:48:28.583Z,41.40
2022-12-25T00:50:57.544Z,41.30
2022-12-25T00:53:25.582Z,41.30
2022-12-25T00:55:58.573Z,41.90
2022-12-25T00:58:28.510Z,41.30
2022-12-25T01:00:56.451Z,41.30
2022-12-25T01:03:24.734Z,41.30
2022-12-25T01:05:58.156Z,41.30
2022-12-25T01:08:25.963Z,41.30
2022-12-25T01:10:58.918Z,41.30
2022-12-25T01:13:26.488Z,41.30
2022-12-25T01:15:54.640Z,41.30
2022-12-25T01:18:23.576Z,41.30
2022-12-25T01:20:51.012Z,41.30
2022-12-25T01:23:18.044Z,41.20
2022-12-25T01:25:45.114Z,41.30
2022-12-25T01:28:12.160Z,41.30
2022-12-25T01:30:39.298Z,41.30
2022-12-25T01:33:06.448Z,41.30
2022-12-25T01:35:33.503Z,41.30
2022-12-25T01:38:00.566Z,41.20
2022-12-25T01:40:27.745Z,41.30
2022-12-25T01:42:54.851Z,41.20
2022-12-25T01:45:42.186Z,41.20
2022-12-25T01:48:14.281Z,41.20
2022-12-25T01:50:46.093Z,41.20
2022-12-25T01:53:13.403Z,41.20
2022-12-25T01:55:42.214Z,41.20
2022-12-25T01:58:09.735Z,41.20
2022-12-25T02:00:36.911Z,41.20
2022-12-25T02:03:04.692Z,41.20
2022-12-25T02:05:33.902Z,41.20
2022-12-25T02:08:10.466Z,41.20
2022-12-25T02:10:39.308Z,41.20
2022-12-25T02:13:08.035Z,41.20
2022-12-25T02:15:55.235Z,41.10
2022-12-25T02:18:44.802Z,41.20
2022-12-25T02:21:51.591Z,41.10
2022-12-25T02:24:43.157Z,41.20
2022-12-25T02:27:31.060Z,41.10
2022-12-25T02:30:08.613Z,41.20
2022-12-25T02:32:47.367Z,41.10
2022-12-25T02:35:25.942Z,41.10
2022-12-25T02:38:05.943Z,41.10
2022-12-25T02:40:42.533Z,41.20
2022-12-25T02:43:36.711Z,41.20
2022-12-25T02:46:28.702Z,41.20
2022-12-25T02:49:24.073Z,41.10
2022-12-25T02:52:29.603Z,41.10
2022-12-25T02:55:32.885Z,41.10
2022-12-25T02:58:30.992Z,41.10
2022-12-25T03:01:39.897Z,41.10
2022-12-25T03:04:33.531Z,41.10
2022-12-25T03:07:13.946Z,41.10
2022-12-25T03:10:07.705Z,41.10
2022-12-25T03:12:45.224Z,41.10
2022-12-25T03:15:33.340Z,41.10
2022-12-25T03:18:03.465Z,41.10
2022-12-25T03:20:51.543Z,41.10
2022-12-25T03:23:45.723Z,41.10
2022-12-25T03:26:32.821Z,41.10
2022-12-25T03:28:59.973Z,41.10
2022-12-25T03:31:36.839Z,41.10
2022-12-25T03:34:35.611Z,41.10
2022-12-25T03:38:01.330Z,41.10
2022-12-25T03:41:11.868Z,41.10
2022-12-25T03:44:12.824Z,41.10
2022-12-25T03:47:08.670Z,41.10
2022-12-25T03:50:20.430Z,41.10
2022-12-25T03:53:09.101Z,41.00
2022-12-25T03:55:57.036Z,41.00
2022-12-25T03:58:47.025Z,41.10
2022-12-25T04:01:34.847Z,41.10
2022-12-25T04:04:21.915Z,41.10
2022-12-25T04:07:08.851Z,41.10
2022-12-25T04:09:55.760Z,41.10
2022-12-25T04:12:42.730Z,41.00
2022-12-25T04:15:30.349Z,41.10
2022-12-25T04:18:17.256Z,41.10
2022-12-25T04:21:04.263Z,41.10
2022-12-25T04:23:51.320Z,41.10
2022-12-25T04:26:38.322Z,41.10
2022-12-25T04:29:25.314Z,41.10
2022-12-25T04:32:12.349Z,41.10
2022-12-25T04:34:59.369Z,41.10
2022-12-25T04:37:26.481Z,41.10
2022-12-25T04:39:53.607Z,41.00
2022-12-25T04:42:20.666Z,41.10
2022-12-25T04:44:47.658Z,41.10
2022-12-25T04:47:14.736Z,41.10
2022-12-25T04:49:41.858Z,41.10
2022-12-25T04:52:08.900Z,41.10
2022-12-25T04:54:37.672Z,41.00
2022-12-25T04:57:05.023Z,41.00
2022-12-25T04:59:32.100Z,41.00
2022-12-25T05:01:59.232Z,41.00
2022-12-25T05:04:26.398Z,41.00
2022-12-25T05:06:53.498Z,41.00
2022-12-25T05:09:20.597Z,41.00
2022-12-25T05:11:47.827Z,41.00
2022-12-25T05:14:15.412Z,41.00
2022-12-25T05:16:42.730Z,41.00
2022-12-25T05:19:10.416Z,41.00
2022-12-25T05:21:37.445Z,41.00
2022-12-25T05:24:04.773Z,41.00
2022-12-25T05:26:31.859Z,40.90
2022-12-25T05:28:59.925Z,40.90
2022-12-25T05:31:27.041Z,41.00
2022-12-25T05:33:54.205Z,40.90
2022-12-25T05:36:21.706Z,40.90
2022-12-25T05:38:48.876Z,40.90
2022-12-25T05:41:15.943Z,40.70
2022-12-25T05:43:42.983Z,40.60
2022-12-25T05:46:11.621Z,40.60
2022-12-25T05:48:39.245Z,41.20
2022-12-25T05:51:09.038Z,40.60
2022-12-25T05:53:36.749Z,40.60
2022-12-25T05:56:06.193Z,40.50
2022-12-25T05:58:35.256Z,40.50
2022-12-25T06:01:02.518Z,40.40
2022-12-25T06:03:30.056Z,40.30
2022-12-25T06:05:57.302Z,40.30
2022-12-25T06:08:24.361Z,40.30
2022-12-25T06:10:51.411Z,40.30
2022-12-25T06:13:18.468Z,40.30
2022-12-25T06:15:45.479Z,40.20
2022-12-25T06:18:12.632Z,40.10
2022-12-25T06:20:42.708Z,40.10
2022-12-25T06:23:10.371Z,40.10
2022-12-25T06:25:40.853Z,40.00
2022-12-25T06:28:07.837Z,39.90
2022-12-25T06:30:35.292Z,39.90
2022-12-25T06:33:02.383Z,39.80
2022-12-25T06:35:29.459Z,39.70
2022-12-25T06:37:56.839Z,39.70
2022-12-25T06:40:23.890Z,39.70
2022-12-25T06:42:52.073Z,39.60
2022-12-25T06:45:19.117Z,39.60
2022-12-25T06:47:46.182Z,39.50
2022-12-25T06:50:13.406Z,39.50
2022-12-25T06:52:40.475Z,39.40
2022-12-25T06:55:07.859Z,39.40
2022-12-25T06:57:34.938Z,39.40
2022-12-25T07:00:02.006Z,39.30
2022-12-25T07:02:29.334Z,39.30
2022-12-25T07:04:56.567Z,39.30
2022-12-25T07:07:23.786Z,39.80
2022-12-25T07:09:50.891Z,39.20
2022-12-25T07:12:23.782Z,39.10
2022-12-25T07:14:53.426Z,39.00
2022-12-25T07:17:21.607Z,39.00
2022-12-25T07:19:49.078Z,39.00
2022-12-25T07:22:16.753Z,38.90
2022-12-25T07:24:43.922Z,38.80
2022-12-25T07:27:11.290Z,38.80
2022-12-25T07:29:38.552Z,38.80
2022-12-25T07:32:05.911Z,38.70
2022-12-25T07:34:33.047Z,38.70
2022-12-25T07:37:00.113Z,38.60
2022-12-25T07:39:27.207Z,38.50
2022-12-25T07:41:54.275Z,38.50
2022-12-25T07:44:21.381Z,38.50
2022-12-25T07:46:48.691Z,38.50
2022-12-25T07:49:16.379Z,38.40
2022-12-25T07:51:43.490Z,38.40
2022-12-25T07:54:10.723Z,38.70
2022-12-25T07:56:37.859Z,38.40
2022-12-25T07:59:04.885Z,38.30
2022-12-25T08:01:32.257Z,38.30
2022-12-25T08:04:01.735Z,38.20
2022-12-25T08:06:34.616Z,38.20
2022-12-25T08:09:12.990Z,38.20
2022-12-25T08:11:44.379Z,38.20
2022-12-25T08:14:11.512Z,38.10
2022-12-25T08:16:41.777Z,38.00
2022-12-25T08:19:09.617Z,38.00
2022-12-25T08:21:36.890Z,38.00
2022-12-25T08:24:04.265Z,37.90
2022-12-25T08:26:31.337Z,37.90
2022-12-25T08:28:58.977Z,37.90
2022-12-25T08:31:29.642Z,37.90
2022-12-25T08:33:58.383Z,37.80
2022-12-25T08:36:25.781Z,37.80
2022-12-25T08:39:00.374Z,37.80
2022-12-25T08:41:29.962Z,37.80
2022-12-25T08:43:57.000Z,37.70
2022-12-25T08:46:24.373Z,37.70
2022-12-25T08:48:51.652Z,37.70
2022-12-25T08:51:21.965Z,37.70
2022-12-25T08:53:51.211Z,37.70
2022-12-25T08:56:19.404Z,37.70
2022-12-25T08:58:47.303Z,37.70
2022-12-25T09:01:14.871Z,37.70
2022-12-25T09:03:43.089Z,37.70
2022-12-25T09:06:13.015Z,37.70
2022-12-25T09:08:46.192Z,37.60
2022-12-25T09:11:16.386Z,38.20
2022-12-25T09:13:43.479Z,37.60
2022-12-25T09:16:17.486Z,37.50
2022-12-25T09:18:45.019Z,37.50
2022-12-25T09:21:14.199Z,37.50
2022-12-25T09:23:41.756Z,37.50
2022-12-25T09:26:12.400Z,37.50
2022-12-25T09:28:40.837Z,37.40
2022-12-25T09:31:11.008Z,37.40
2022-12-25T09:33:38.129Z,37.40
2022-12-25T09:36:07.631Z,37.50
2022-12-25T09:38:35.286Z,38.00
2022-12-25T09:41:13.162Z,37.40
2022-12-25T09:43:46.765Z,37.30
2022-12-25T09:46:19.700Z,37.40
2022-12-25T09:49:12.127Z,37.40
2022-12-25T09:51:40.671Z,37.30
2022-12-25T09:54:18.376Z,37.30
2022-12-25T09:56:45.482Z,37.30
2022-12-25T09:59:26.428Z,37.20
2022-12-25T10:02:19.017Z,37.20
2022-12-25T10:05:25.957Z,37.20
2022-12-25T10:08:23.234Z,37.20
2022-12-25T10:11:01.463Z,37.10
2022-12-25T10:14:08.363Z,37.10
2022-12-25T10:17:13.078Z,37.20
2022-12-25T10:20:08.270Z,37.20
2022-12-25T10:22:40.891Z,37.20
2022-12-25T10:25:17.284Z,37.20
2022-12-25T10:27:45.279Z,37.20
2022-12-25T10:30:24.735Z,37.20
2022-12-25T10:32:52.977Z,37.20
2022-12-25T10:35:22.463Z,37.20
2022-12-25T10:37:58.986Z,37.30
2022-12-25T10:40:59.653Z,37.30
2022-12-25T10:43:50.101Z,37.30
2022-12-25T10:46:17.559Z,37.20
2022-12-25T10:48:50.294Z,37.20
2022-12-25T10:51:31.497Z,37.20
2022-12-25T10:53:58.838Z,37.20
2022-12-25T10:56:26.033Z,37.20
2022-12-25T10:59:07.933Z,37.20
2022-12-25T11:01:35.129Z,37.20
2022-12-25T11:04:02.620Z,37.20
2022-12-25T11:06:32.354Z,37.20
2022-12-25T11:09:01.603Z,37.20
2022-12-25T11:11:30.223Z,37.10
2022-12-25T11:14:02.632Z,37.20
2022-12-25T11:16:38.460Z,37.10
2022-12-25T11:19:30.665Z,37.10
2022-12-25T11:22:00.480Z,37.10
2022-12-25T11:24:33.039Z,37.10
2022-12-25T11:27:04.836Z,37.10
2022-12-25T11:29:49.079Z,37.10
2022-12-25T11:32:22.759Z,37.10
2022-12-25T11:34:51.139Z,37.00
2022-12-25T11:37:27.320Z,37.00
2022-12-25T11:39:54.571Z,37.00
2022-12-25T11:42:28.440Z,37.00
2022-12-25T11:45:19.148Z,37.00
2022-12-25T11:47:58.931Z,37.00
2022-12-25T11:50:36.620Z,36.90
2022-12-25T11:53:22.219Z,36.90
2022-12-25T11:55:55.043Z,36.90
2022-12-25T11:58:45.084Z,36.90
2022-12-25T12:01:52.004Z,36.90
2022-12-25T12:04:42.651Z,36.90
2022-12-25T12:07:30.634Z,36.90
2022-12-25T12:10:19.299Z,36.90
2022-12-25T12:13:02.377Z,36.80
2022-12-25T12:15:39.719Z,36.90
2022-12-25T12:18:32.119Z,36.90
2022-12-25T12:21:23.974Z,36.80
2022-12-25T12:24:12.440Z,36.80
2022-12-25T12:26:42.676Z,36.80
2022-12-25T12:29:26.038Z,36.80
2022-12-25T12:31:54.118Z,36.80
2022-12-25T12:34:42.508Z,36.70
2022-12-25T12:37:31.870Z,36.70
2022-12-25T12:39:59.802Z,36.70
2022-12-25T12:42:31.403Z,36.70
2022-12-25T12:45:15.706Z,36.70
2022-12-25T12:47:46.833Z,36.70
2022-12-25T12:50:32.073Z,36.70
2022-12-25T12:53:00.277Z,36.70
2022-12-25T12:55:32.389Z,36.70
2022-12-25T12:58:01.928Z,36.60
2022-12-25T13:01:03.487Z,36.70
2022-12-25T13:04:00.704Z,36.60
2022-12-25T13:06:49.415Z,36.60
2022-12-25T13:09:56.229Z,36.60
2022-12-25T13:12:23.733Z,36.60
2022-12-25T13:14:51.153Z,36.60
2022-12-25T13:17:22.041Z,36.60
2022-12-25T13:19:59.508Z,36.60
2022-12-25T13:22:33.212Z,36.70
2022-12-25T13:25:05.156Z,36.60
2022-12-25T13:27:33.671Z,36.70
2022-12-25T13:30:11.468Z,36.60
2022-12-25T13:32:38.596Z,36.70
2022-12-25T13:35:11.907Z,36.70
2022-12-25T13:37:39.318Z,36.70
2022-12-25T13:40:08.734Z,36.60
2022-12-25T13:42:39.949Z,36.60
2022-12-25T13:45:24.219Z,36.50
2022-12-25T13:47:55.455Z,36.60
2022-12-25T13:50:32.643Z,36.60
2022-12-25T13:53:12.725Z,36.60
2022-12-25T13:55:40.780Z,36.60
2022-12-25T13:58:17.422Z,36.60
2022-12-25T14:00:50.371Z,36.60
2022-12-25T14:03:33.633Z,36.60
2022-12-25T14:06:06.934Z,36.50
2022-12-25T14:08:36.002Z,36.50
2022-12-25T14:11:06.174Z,36.50
2022-12-25T14:13:38.034Z,36.60
2022-12-25T14:16:06.066Z,36.60
2022-12-25T14:18:33.562Z,37.20
2022-12-25T14:21:05.476Z,36.60
2022-12-25T14:23:45.238Z,36.60
2022-12-25T14:26:21.818Z,36.60
2022-12-25T14:28:53.723Z,36.60
2022-12-25T14:31:21.677Z,36.70
2022-12-25T14:33:50.738Z,36.70
2022-12-25T14:36:18.207Z,36.70
2022-12-25T14:38:55.258Z,36.70
2022-12-25T14:41:34.628Z,36.80
2022-12-25T14:44:04.289Z,36.80
2022-12-25T14:46:33.416Z,37.30
2022-12-25T14:49:07.273Z,36.80
2022-12-25T14:51:38.346Z,36.80
2022-12-25T14:54:14.427Z,36.90
2022-12-25T14:56:47.361Z,36.90
2022-12-25T14:59:18.887Z,36.90
2022-12-25T15:01:52.460Z,37.00
2022-12-25T15:04:22.416Z,37.00
2022-12-25T15:07:00.409Z,37.10
2022-12-25T15:09:30.093Z,37.10
2022-12-25T15:11:57.461Z,37.20
2022-12-25T15:14:26.020Z,37.20
2022-12-25T15:16:56.411Z,37.30
2022-12-25T15:19:28.315Z,37.30
2022-12-25T15:21:59.853Z,37.40
2022-12-25T15:24:26.935Z,37.60
2022-12-25T15:26:55.530Z,37.60
2022-12-25T15:29:44.596Z,37.80
2022-12-25T15:32:19.308Z,37.90
2022-12-25T15:34:47.358Z,37.90
2022-12-25T15:37:14.887Z,38.00
2022-12-25T15:39:42.066Z,38.20
2022-12-25T15:42:17.670Z,38.20
2022-12-25T15:44:45.576Z,38.30
2022-12-25T15:47:14.234Z,38.40
2022-12-25T15:49:41.645Z,38.50
2022-12-25T15:52:12.925Z,38.60
2022-12-25T15:54:40.030Z,38.70
2022-12-25T15:57:14.542Z,38.70
2022-12-25T15:59:41.607Z,38.80
2022-12-25T16:02:18.005Z,38.90
2022-12-25T16:04:45.892Z,39.00
2022-12-25T16:07:19.331Z,39.00
2022-12-25T16:09:46.538Z,39.10
2022-12-25T16:12:13.723Z,39.10
2022-12-25T16:14:41.060Z,39.20
2022-12-25T16:17:11.451Z,39.30
2022-12-25T16:19:38.367Z,39.40
2022-12-25T16:22:13.675Z,39.40
2022-12-25T16:24:40.885Z,39.40
2022-12-25T16:27:07.989Z,39.50
2022-12-25T16:29:35.109Z,39.50
2022-12-25T16:32:02.306Z,39.60
2022-12-25T16:34:29.408Z,39.60
2022-12-25T16:36:56.708Z,39.60
2022-12-25T16:39:23.888Z,39.60
2022-12-25T16:41:50.960Z,39.70
2022-12-25T16:44:18.108Z,39.70
2022-12-25T16:46:45.301Z,39.70
2022-12-25T16:49:12.452Z,39.80
2022-12-25T16:51:39.603Z,39.80
2022-12-25T16:54:07.049Z,39.80
2022-12-25T16:56:36.775Z,39.90
2022-12-25T16:59:04.088Z,39.90
2022-12-25T17:01:31.357Z,39.90
2022-12-25T17:04:01.738Z,39.90
2022-12-25T17:06:29.043Z,40.00
2022-12-25T17:08:58.965Z,40.00
2022-12-25T17:11:29.941Z,40.00
2022-12-25T17:13:59.900Z,40.00
2022-12-25T17:16:29.861Z,40.10
2022-12-25T17:19:01.517Z,40.00
2022-12-25T17:21:29.527Z,40.10
2022-12-25T17:24:02.262Z,40.10
2022-12-25T17:26:31.977Z,40.10
2022-12-25T17:28:59.385Z,40.20
2022-12-25T17:31:26.859Z,40.20
2022-12-25T17:33:54.580Z,40.20
2022-12-25T17:36:22.641Z,40.30
2022-12-25T17:38:49.927Z,40.30
2022-12-25T17:41:18.028Z,40.30
2022-12-25T17:43:46.027Z,40.30
2022-12-25T17:46:25.001Z,40.30
2022-12-25T17:48:54.447Z,40.30
2022-12-25T17:51:23.555Z,40.30
2022-12-25T17:53:56.430Z,40.40
2022-12-25T17:56:24.529Z,40.30
2022-12-25T17:58:54.464Z,40.40
2022-12-25T18:01:22.678Z,40.30
2022-12-25T18:03:51.197Z,40.40
2022-12-25T18:06:21.107Z,40.40
2022-12-25T18:08:49.162Z,40.50
2022-12-25T18:11:19.307Z,40.40
2022-12-25T18:13:50.068Z,40.50
2022-12-25T18:16:18.781Z,40.50
2022-12-25T18:18:51.776Z,40.60
2022-12-25T18:21:20.758Z,40.60
2022-12-25T18:23:47.954Z,40.70
2022-12-25T18:26:15.068Z,40.60
2022-12-25T18:28:44.090Z,40.60
2022-12-25T18:31:15.298Z,40.60
2022-12-25T18:33:43.501Z,40.60
2022-12-25T18:36:13.816Z,40.60
2022-12-25T18:38:41.650Z,40.60
2022-12-25T18:41:10.076Z,40.60
2022-12-25T18:43:53.254Z,40.60
2022-12-25T18:46:24.703Z,40.60
2022-12-25T18:48:54.701Z,40.60
2022-12-25T18:51:21.895Z,40.60
2022-12-25T18:53:49.012Z,40.60
2022-12-25T18:56:18.063Z,40.60
2022-12-25T18:58:46.775Z,40.60
2022-12-25T19:01:20.439Z,40.60
2022-12-25T19:03:49.352Z,40.60
2022-12-25T19:06:18.926Z,40.70
2022-12-25T19:08:46.665Z,40.70
2022-12-25T19:11:13.707Z,40.60
2022-12-25T19:13:40.837Z,40.70
2022-12-25T19:16:08.388Z,40.70
2022-12-25T19:18:35.499Z,40.70
2022-12-25T19:21:07.765Z,40.70
2022-12-25T19:23:35.725Z,40.70
2022-12-25T19:26:05.776Z,40.70
2022-12-25T19:28:32.965Z,40.70
2022-12-25T19:31:01.022Z,40.70
2022-12-25T19:33:30.841Z,40.70
2022-12-25T19:36:03.515Z,40.70
2022-12-25T19:38:30.605Z,40.70
2022-12-25T19:41:01.198Z,40.70
2022-12-25T19:43:30.616Z,40.70
2022-12-25T19:45:57.907Z,40.70
2022-12-25T19:48:25.177Z,40.80
2022-12-25T19:50:52.943Z,40.80
2022-12-25T19:53:23.320Z,40.80
2022-12-25T19:55:52.775Z,40.80
2022-12-25T19:58:20.998Z,40.80
2022-12-25T20:01:02.938Z,40.80
2022-12-25T20:03:30.241Z,40.80
2022-12-25T20:05:57.797Z,40.80
2022-12-25T20:08:25.300Z,40.80
2022-12-25T20:10:52.864Z,40.80
2022-12-25T20:13:20.378Z,40.80
2022-12-25T20:15:48.260Z,40.90
2022-12-25T20:18:16.884Z,40.80
2022-12-25T20:20:45.258Z,40.80
2022-12-25T20:23:12.414Z,40.90
2022-12-25T20:25:41.241Z,40.90
2022-12-25T20:28:08.964Z,40.90
2022-12-25T20:30:39.796Z,40.90
2022-12-25T20:33:07.056Z,40.90
2022-12-25T20:35:34.721Z,40.90
2022-12-25T20:38:01.916Z,40.90
2022-12-25T20:40:29.227Z,40.90
2022-12-25T20:42:56.300Z,40.90
2022-12-25T20:45:23.385Z,41.00
2022-12-25T20:47:50.473Z,40.90
2022-12-25T20:50:17.611Z,41.00
2022-12-25T20:52:44.657Z,40.90
2022-12-25T20:55:11.776Z,41.00
2022-12-25T20:57:38.838Z,41.00
2022-12-25T21:00:06.529Z,40.90
2022-12-25T21:02:36.717Z,40.90
2022-12-25T21:05:06.554Z,40.90
2022-12-25T21:07:34.107Z,40.90
2022-12-25T21:10:01.177Z,40.90
2022-12-25T21:12:28.220Z,40.90
2022-12-25T21:14:55.326Z,40.90
2022-12-25T21:17:22.472Z,40.90
2022-12-25T21:19:49.569Z,40.90
2022-12-25T21:22:16.697Z,40.90
2022-12-25T21:24:43.729Z,40.90
2022-12-25T21:27:10.792Z,40.90
2022-12-25T21:29:38.044Z,40.90
2022-12-25T21:32:25.225Z,40.90
2022-12-25T21:34:52.293Z,40.90
2022-12-25T21:37:19.396Z,40.90
2022-12-25T21:39:50.222Z,40.90
2022-12-25T21:42:17.506Z,40.90
2022-12-25T21:44:44.553Z,41.00
2022-12-25T21:47:11.605Z,40.90
2022-12-25T21:50:00.906Z,41.00
2022-12-25T21:52:27.993Z,40.90
2022-12-25T21:54:55.004Z,40.90
2022-12-25T21:57:22.030Z,41.00
2022-12-25T21:59:49.260Z,40.90
2022-12-25T22:02:16.440Z,40.90
2022-12-25T22:04:43.704Z,40.90
2022-12-25T22:07:20.473Z,40.90
2022-12-25T22:09:49.857Z,40.90
2022-12-25T22:12:39.065Z,41.00
2022-12-25T22:15:09.629Z,41.00
2022-12-25T22:18:02.214Z,41.00
2022-12-25T22:20:34.908Z,41.00
2022-12-25T22:23:02.891Z,41.00
2022-12-25T22:25:30.035Z,41.00
2022-12-25T22:27:57.585Z,41.00
2022-12-25T22:30:27.616Z,41.00
2022-12-25T22:32:55.212Z,41.00
2022-12-25T22:35:22.624Z,41.00
2022-12-25T22:37:50.063Z,41.10
2022-12-25T22:40:19.146Z,41.10
2022-12-25T22:42:46.314Z,41.10
2022-12-25T22:45:13.759Z,41.10
2022-12-25T22:47:41.168Z,41.10
2022-12-25T22:50:09.209Z,41.10
2022-12-25T22:52:37.137Z,41.10
2022-12-25T22:55:05.718Z,41.10
2022-12-25T22:57:34.541Z,41.10
2022-12-25T23:00:01.896Z,41.20
2022-12-25T23:02:29.321Z,41.20
2022-12-25T23:04:56.553Z,41.20
2022-12-25T23:07:23.577Z,41.20
2022-12-25T23:09:50.640Z,41.20
2022-12-25T23:12:37.599Z,41.20
2022-12-25T23:15:05.141Z,41.20
2022-12-25T23:17:52.062Z,41.20
2022-12-25T23:20:39.174Z,41.20
2022-12-25T23:23:26.115Z,41.20
2022-12-25T23:26:09.090Z,41.20
2022-12-25T23:29:01.273Z,41.20
2022-12-25T23:31:36.714Z,41.20
2022-12-25T23:34:05.363Z,41.20
2022-12-25T23:36:32.693Z,41.20
2022-12-25T23:39:06.679Z,41.20
2022-12-25T23:41:36.422Z,41.30
2022-12-25T23:44:03.539Z,41.30
2022-12-25T23:46:31.723Z,41.30
2022-12-25T23:48:58.864Z,41.30
2022-12-25T23:51:25.986Z,41.30
2022-12-25T23:53:53.122Z,41.30
2022-12-25T23:56:20.168Z,41.30
2022-12-25T23:58:51.940Z,41.20
